Time;durP1;ratioP1;P1;durP2;ratioP2;P2;SDS_P1;SDS_P2;PMS_P1;PMS_P2;Temp;Humidity;BMP_temperature;BMP_pressure;BME280_temperature;BME280_humidity;BME280_pressure;Samples;Min_cycle;Max_cycle;Signal;HPM_P1;HPM_P2
2021/12/12 00:00:29;;;;;;;10.90;5.90;;;5.60;99.90;;;;;;4976038;28;20443;-68
2021/12/12 00:03:02;;;;;;;10.43;6.10;;;5.60;99.90;;;;;;4985358;28;20414;-68
2021/12/12 00:05:40;;;;;;;8.30;6.23;;;5.60;99.90;;;;;;4991568;28;20435;-68
2021/12/12 00:08:07;;;;;;;8.70;5.90;;;5.60;99.90;;;;;;4993214;28;20427;-68
2021/12/12 00:10:36;;;;;;;9.80;5.97;;;5.60;99.90;;;;;;4993021;28;20400;-67
2021/12/12 00:13:12;;;;;;;15.13;5.97;;;5.60;99.90;;;;;;4992916;28;20841;-67
2021/12/12 00:15:38;;;;;;;11.93;6.53;;;5.60;99.90;;;;;;4991054;28;20454;-67
2021/12/12 00:18:04;;;;;;;9.63;5.60;;;5.60;99.90;;;;;;4992907;28;20469;-67
2021/12/12 00:20:31;;;;;;;11.70;5.97;;;5.60;99.90;;;;;;4992836;28;20884;-67
2021/12/12 00:22:59;;;;;;;5.50;4.90;;;5.50;99.90;;;;;;4992710;28;20755;-68
2021/12/12 00:25:27;;;;;;;7.97;4.83;;;5.60;99.90;;;;;;4992451;28;20481;-68
2021/12/12 00:27:53;;;;;;;10.17;5.50;;;5.60;99.90;;;;;;4991129;28;20434;-68
2021/12/12 00:30:18;;;;;;;10.17;5.70;;;5.60;99.90;;;;;;4992827;28;20502;-68
2021/12/12 00:32:44;;;;;;;10.80;5.80;;;5.50;99.90;;;;;;4992571;28;20223;-68
2021/12/12 00:35:13;;;;;;;8.70;5.13;;;5.50;99.90;;;;;;4992501;28;20581;-68
2021/12/12 00:37:39;;;;;;;5.63;5.00;;;5.60;99.90;;;;;;4990622;28;20223;-68
2021/12/12 00:40:20;;;;;;;6.50;5.63;;;5.60;99.90;;;;;;4987799;28;20499;-68
2021/12/12 00:42:47;;;;;;;7.33;5.10;;;5.50;99.90;;;;;;4973296;28;20936;-68
2021/12/12 00:45:15;;;;;;;6.20;4.50;;;5.50;99.90;;;;;;4973013;28;20912;-67
2021/12/12 00:47:42;;;;;;;6.60;4.63;;;5.50;99.90;;;;;;4972963;28;20419;-68
2021/12/12 00:50:13;;;;;;;6.20;4.40;;;5.50;99.90;;;;;;4974185;28;20428;-67
2021/12/12 00:52:42;;;;;;;5.80;4.60;;;5.60;99.90;;;;;;4973677;28;20814;-69
2021/12/12 00:55:07;;;;;;;7.83;4.33;;;5.60;99.90;;;;;;4973115;28;20440;-67
2021/12/12 00:57:33;;;;;;;6.33;4.20;;;5.60;99.90;;;;;;4973435;28;20471;-67
2021/12/12 00:59:59;;;;;;;6.00;4.00;;;5.60;99.90;;;;;;4972029;28;20180;-69
2021/12/12 01:02:27;;;;;;;6.50;3.70;;;5.50;99.90;;;;;;4975755;28;20436;-69
2021/12/12 01:04:56;;;;;;;6.70;4.23;;;5.50;99.90;;;;;;4980735;28;20460;-67
2021/12/12 01:07:28;;;;;;;8.10;4.10;;;5.50;99.90;;;;;;4983450;28;20717;-67
2021/12/12 01:09:58;;;;;;;9.33;4.87;;;5.50;99.90;;;;;;4984171;28;20956;-67
2021/12/12 01:12:29;;;;;;;9.53;3.83;;;5.40;99.90;;;;;;4988288;28;20470;-67
2021/12/12 01:15:00;;;;;;;11.87;4.43;;;5.40;99.90;;;;;;4990961;28;20501;-67
2021/12/12 01:17:34;;;;;;;6.13;4.03;;;5.40;99.90;;;;;;4991979;28;20462;-68
2021/12/12 01:20:10;;;;;;;8.30;3.50;;;5.40;99.90;;;;;;4992704;28;20393;-67
2021/12/12 01:22:38;;;;;;;7.63;3.70;;;5.40;99.90;;;;;;4990901;28;20429;-67
2021/12/12 01:25:12;;;;;;;7.60;4.80;;;5.40;99.90;;;;;;4992146;28;20948;-67
2021/12/12 01:27:37;;;;;;;5.87;3.80;;;5.40;99.90;;;;;;4992087;28;20523;-67
2021/12/12 01:30:05;;;;;;;8.20;4.00;;;5.40;99.90;;;;;;4992701;28;20530;-67
2021/12/12 01:32:33;;;;;;;7.83;4.53;;;5.40;99.90;;;;;;4991101;28;20196;-67
2021/12/12 01:34:59;;;;;;;9.07;3.93;;;5.40;99.90;;;;;;4991239;28;20514;-67
2021/12/12 01:40:22;;;;;;;7.77;4.30;;;5.30;99.90;;;;;;4992601;28;20915;-67
2021/12/12 01:42:59;;;;;;;7.23;4.27;;;5.30;99.90;;;;;;4992054;28;20518;-67
2021/12/12 01:45:35;;;;;;;8.13;4.60;;;5.30;99.90;;;;;;4991322;28;20496;-68
2021/12/12 01:48:13;;;;;;;6.63;3.87;;;5.30;99.90;;;;;;4995531;28;20522;-68
2021/12/12 01:50:46;;;;;;;6.20;4.90;;;5.30;99.90;;;;;;4996012;28;20403;-67
2021/12/12 01:53:15;;;;;;;5.70;3.70;;;5.40;99.90;;;;;;4995879;28;20402;-68
2021/12/12 01:55:58;;;;;;;7.10;4.40;;;5.30;99.90;;;;;;4993739;28;20447;-67
2021/12/12 01:58:26;;;;;;;7.00;3.90;;;5.40;99.90;;;;;;4996089;28;20419;-67
2021/12/12 02:00:55;;;;;;;5.93;4.10;;;5.40;99.90;;;;;;4996158;28;20403;-67
2021/12/12 02:03:24;;;;;;;10.47;3.90;;;5.40;99.90;;;;;;4996109;28;20815;-68
2021/12/12 02:05:50;;;;;;;5.93;4.00;;;5.40;99.90;;;;;;4994444;28;20911;-70
2021/12/12 02:08:18;;;;;;;4.30;3.70;;;5.40;99.90;;;;;;4997232;28;20407;-67
2021/12/12 02:10:49;;;;;;;4.87;3.33;;;5.40;99.90;;;;;;4997000;28;20771;-68
2021/12/12 02:13:19;;;;;;;7.70;4.60;;;5.40;99.90;;;;;;4996750;28;20515;-67
2021/12/12 02:15:47;;;;;;;6.47;4.33;;;5.40;99.90;;;;;;4994375;28;20424;-67
2021/12/12 02:18:15;;;;;;;8.80;4.67;;;5.50;99.90;;;;;;4994228;28;20498;-69
2021/12/12 02:23:49;;;;;;;6.90;4.60;;;5.40;99.90;;;;;;4995940;28;20799;-66
2021/12/12 02:37:13;;;;;;;9.30;4.60;;;5.40;99.90;;;;;;4976057;28;20905;-67
2021/12/12 02:39:40;;;;;;;5.50;4.40;;;5.50;99.90;;;;;;4976313;28;20447;-67
2021/12/12 02:42:11;;;;;;;6.97;3.80;;;5.40;99.90;;;;;;4975610;28;20423;-67
2021/12/12 02:44:39;;;;;;;5.17;3.60;;;5.50;99.90;;;;;;4976571;28;20447;-66
2021/12/12 02:47:13;;;;;;;6.60;4.00;;;5.50;99.90;;;;;;4975412;28;20751;-68
2021/12/12 02:49:54;;;;;;;6.10;4.57;;;5.50;99.90;;;;;;4976031;28;20447;-67
2021/12/12 02:52:24;;;;;;;8.77;5.03;;;5.50;99.90;;;;;;4979139;28;20420;-67
2021/12/12 02:54:50;;;;;;;6.80;4.13;;;5.50;99.90;;;;;;4975869;28;20426;-67
2021/12/12 02:57:18;;;;;;;7.87;4.33;;;5.50;99.90;;;;;;4974734;28;20828;-68
2021/12/12 02:59:48;;;;;;;7.80;4.50;;;5.60;99.90;;;;;;4975428;28;20408;-68
2021/12/12 03:02:18;;;;;;;8.93;4.27;;;5.60;99.90;;;;;;4977196;28;20424;-67
2021/12/12 03:04:44;;;;;;;7.43;4.90;;;5.60;99.90;;;;;;4975575;28;20420;-68
2021/12/12 03:07:10;;;;;;;4.77;3.90;;;5.60;99.90;;;;;;4974610;28;20420;-67
2021/12/12 03:09:43;;;;;;;7.43;3.53;;;5.60;99.90;;;;;;4974881;28;20688;-68
2021/12/12 03:12:16;;;;;;;5.77;4.00;;;5.60;99.90;;;;;;4975781;28;20839;-68
2021/12/12 03:14:42;;;;;;;9.07;4.33;;;5.70;99.90;;;;;;4974520;28;20431;-67
2021/12/12 03:17:22;;;;;;;8.20;4.60;;;5.70;99.90;;;;;;4974470;28;20495;-69
2021/12/12 03:20:12;;;;;;;6.00;3.90;;;5.70;99.90;;;;;;4974650;28;20502;-68
2021/12/12 03:22:37;;;;;;;10.70;4.33;;;5.70;99.90;;;;;;4975094;28;20424;-67
2021/12/12 03:25:04;;;;;;;5.67;3.77;;;5.70;99.90;;;;;;4974547;28;20429;-66
2021/12/12 03:27:30;;;;;;;8.10;3.97;;;5.70;99.90;;;;;;4974180;28;20231;-66
2021/12/12 03:29:55;;;;;;;7.03;3.53;;;5.70;99.90;;;;;;4974591;28;20420;-67
2021/12/12 03:32:22;;;;;;;8.97;3.97;;;5.70;99.90;;;;;;4977071;28;20219;-67
2021/12/12 03:34:52;;;;;;;8.30;3.90;;;5.70;99.90;;;;;;4990298;28;20299;-67
2021/12/12 03:37:21;;;;;;;6.70;4.87;;;5.70;99.90;;;;;;4992623;28;20463;-67
2021/12/12 03:39:49;;;;;;;6.83;3.90;;;5.70;99.90;;;;;;4993791;28;20454;-67
2021/12/12 03:42:22;;;;;;;6.07;4.30;;;5.80;99.90;;;;;;4993726;28;20454;-67
2021/12/12 03:44:50;;;;;;;8.83;3.83;;;5.80;99.90;;;;;;4992116;28;20936;-68
2021/12/12 03:47:28;;;;;;;8.00;4.00;;;5.80;99.90;;;;;;4993247;28;20922;-68
2021/12/12 03:49:57;;;;;;;5.60;3.73;;;5.80;99.90;;;;;;4993668;28;20411;-68
2021/12/12 03:52:23;;;;;;;7.80;4.10;;;5.80;99.90;;;;;;4993883;28;20481;-67
2021/12/12 03:54:50;;;;;;;7.87;4.20;;;5.80;99.90;;;;;;4992139;28;20442;-67
2021/12/12 03:57:20;;;;;;;5.57;3.83;;;5.80;99.90;;;;;;4993260;28;20830;-67
2021/12/12 03:59:46;;;;;;;9.40;3.80;;;5.80;99.90;;;;;;4993991;28;20415;-67
2021/12/12 04:02:12;;;;;;;5.30;3.70;;;5.80;99.90;;;;;;4993768;28;20904;-67
2021/12/12 04:04:42;;;;;;;8.03;3.90;;;5.80;99.90;;;;;;4991840;28;20448;-68
2021/12/12 04:07:11;;;;;;;7.13;3.67;;;5.90;99.90;;;;;;4993762;28;20411;-67
2021/12/12 04:09:37;;;;;;;4.60;3.80;;;5.90;99.90;;;;;;4993077;28;20411;-67
2021/12/12 04:12:06;;;;;;;7.67;4.77;;;5.90;99.90;;;;;;4993641;28;20423;-67
2021/12/12 04:14:31;;;;;;;9.00;4.37;;;5.90;99.90;;;;;;4993419;28;20431;-67
2021/12/12 04:17:13;;;;;;;8.80;4.37;;;5.90;99.90;;;;;;4991112;28;20521;-67
2021/12/12 04:19:43;;;;;;;7.03;3.80;;;5.90;99.90;;;;;;4993411;28;20161;-68
2021/12/12 04:22:09;;;;;;;7.80;3.60;;;5.90;99.90;;;;;;4993157;28;20419;-68
2021/12/12 04:24:40;;;;;;;7.23;4.57;;;5.90;99.90;;;;;;4992925;28;20440;-67
2021/12/12 04:27:07;;;;;;;7.57;3.60;;;5.90;99.90;;;;;;4991214;28;20431;-68
2021/12/12 04:29:36;;;;;;;5.80;4.90;;;5.90;99.90;;;;;;4992852;28;20411;-68
2021/12/12 04:32:09;;;;;;;9.17;4.37;;;6.00;99.90;;;;;;4993035;28;20399;-68
2021/12/12 04:34:39;;;;;;;8.37;4.47;;;5.90;99.90;;;;;;4992331;28;20446;-68
2021/12/12 04:37:06;;;;;;;8.40;4.37;;;6.00;99.90;;;;;;5012974;23;21079;-69
2021/12/12 04:39:36;;;;;;;5.37;3.90;;;5.90;99.90;;;;;;4984586;28;20909;-69
2021/12/12 04:42:19;;;;;;;12.03;4.13;;;6.00;99.90;;;;;;4992710;28;20407;-69
2021/12/12 04:44:51;;;;;;;15.03;4.40;;;6.00;99.90;;;;;;4992640;28;20450;-69
2021/12/12 04:50:29;;;;;;;5.53;3.77;;;5.90;99.90;;;;;;4989860;28;20769;-69
2021/12/12 04:53:08;;;;;;;7.40;4.30;;;6.00;99.90;;;;;;4972091;28;20503;-69
2021/12/12 04:55:44;;;;;;;9.47;4.83;;;6.00;99.90;;;;;;4973740;28;20511;-69
2021/12/12 04:58:32;;;;;;;6.67;4.20;;;6.00;99.90;;;;;;4990846;28;20462;-69
2021/12/12 05:01:21;;;;;;;10.00;4.57;;;6.00;99.90;;;;;;4990228;28;20780;-69
2021/12/12 05:03:56;;;;;;;5.70;3.27;;;6.00;99.90;;;;;;4972632;28;20519;-71
2021/12/12 05:06:33;;;;;;;6.77;4.47;;;6.10;99.90;;;;;;4973378;28;20828;-69
2021/12/12 05:09:07;;;;;;;4.70;3.70;;;6.00;99.90;;;;;;4974742;28;20419;-70
2021/12/12 05:11:51;;;;;;;5.50;4.07;;;6.00;99.90;;;;;;4975354;28;20434;-69
2021/12/12 05:14:23;;;;;;;6.33;4.37;;;6.00;99.90;;;;;;4973122;28;20972;-69
2021/12/12 05:17:01;;;;;;;9.20;4.37;;;6.00;99.90;;;;;;4972864;28;20642;-69
2021/12/12 05:19:29;;;;;;;7.27;4.73;;;6.10;99.90;;;;;;4973760;28;20403;-69
2021/12/12 05:22:31;;;;;;;5.47;4.10;;;6.10;99.90;;;;;;4976939;28;20444;-68
2021/12/12 05:25:01;;;;;;;5.27;3.67;;;6.10;99.90;;;;;;4995200;28;20465;-69
2021/12/12 05:27:27;;;;;;;9.60;4.80;;;6.10;99.90;;;;;;4995804;28;20490;-69
2021/12/12 05:30:04;;;;;;;8.57;4.90;;;6.10;99.90;;;;;;4996114;28;20514;-69
2021/12/12 05:32:31;;;;;;;6.80;4.40;;;6.10;99.90;;;;;;4995532;28;20423;-69
2021/12/12 05:34:58;;;;;;;9.40;4.90;;;6.10;99.90;;;;;;4994278;28;20429;-69
2021/12/12 05:37:24;;;;;;;6.87;4.50;;;6.10;99.90;;;;;;4994765;28;20462;-68
2021/12/12 05:39:51;;;;;;;12.50;4.93;;;6.00;99.90;;;;;;4996005;28;20403;-69
2021/12/12 05:42:18;;;;;;;8.63;4.80;;;5.90;99.90;;;;;;4995696;28;20419;-68
2021/12/12 05:44:44;;;;;;;11.53;4.80;;;5.90;99.90;;;;;;4994319;28;20447;-68
2021/12/12 05:47:11;;;;;;;7.87;4.80;;;6.00;99.90;;;;;;4995271;28;20473;-69
2021/12/12 05:49:39;;;;;;;8.20;4.90;;;5.90;99.90;;;;;;4995823;28;20407;-69
2021/12/12 05:52:15;;;;;;;8.20;5.40;;;6.00;99.90;;;;;;4995524;28;20416;-68
2021/12/12 05:54:41;;;;;;;9.73;5.20;;;6.00;99.90;;;;;;4993938;28;20427;-69
2021/12/12 05:57:10;;;;;;;4.83;4.33;;;6.10;99.90;;;;;;4995143;28;20963;-69
2021/12/12 05:59:37;;;;;;;7.30;4.87;;;6.00;99.90;;;;;;4995972;28;20521;-69
2021/12/12 06:02:05;;;;;;;9.90;4.90;;;6.00;99.90;;;;;;4995539;28;20417;-69
2021/12/12 06:04:32;;;;;;;7.20;5.30;;;6.00;99.90;;;;;;4995169;28;20431;-69
2021/12/12 06:06:57;;;;;;;9.60;5.53;;;6.00;99.90;;;;;;4993753;28;20788;-69
2021/12/12 06:09:24;;;;;;;7.47;4.70;;;6.00;99.90;;;;;;4995468;28;20422;-68
2021/12/12 06:11:52;;;;;;;7.07;4.60;;;6.00;99.90;;;;;;4995395;28;20239;-68
2021/12/12 06:14:20;;;;;;;6.70;4.37;;;5.90;99.90;;;;;;4995247;28;20419;-68
2021/12/12 06:16:48;;;;;;;6.30;5.00;;;6.00;99.90;;;;;;4993324;28;20466;-69
2021/12/12 06:19:23;;;;;;;5.50;4.13;;;6.00;99.90;;;;;;4995856;28;20408;-69
2021/12/12 06:21:55;;;;;;;7.40;4.50;;;6.10;99.90;;;;;;4995642;28;20415;-69
2021/12/12 06:24:22;;;;;;;6.80;4.10;;;6.10;99.90;;;;;;4995117;28;20499;-69
2021/12/12 06:26:48;;;;;;;5.80;4.77;;;6.10;99.90;;;;;;4992701;28;20447;-70
2021/12/12 06:29:15;;;;;;;7.97;5.27;;;6.00;99.90;;;;;;4994018;28;20589;-69
2021/12/12 06:31:43;;;;;;;4.70;3.60;;;6.00;99.90;;;;;;4994163;28;20950;-69
2021/12/12 06:34:10;;;;;;;5.80;3.93;;;6.00;99.90;;;;;;4994861;28;20494;-69
2021/12/12 06:36:36;;;;;;;7.20;4.33;;;6.00;99.90;;;;;;4992670;28;20471;-69
2021/12/12 06:39:05;;;;;;;4.97;4.17;;;5.90;99.90;;;;;;4993874;28;20526;-69
2021/12/12 06:41:31;;;;;;;4.30;3.90;;;5.90;99.90;;;;;;4978196;28;20420;-68
2021/12/12 06:43:58;;;;;;;6.03;3.93;;;5.90;99.90;;;;;;4975322;28;20470;-69
2021/12/12 06:46:24;;;;;;;4.07;3.67;;;6.00;99.90;;;;;;4974532;28;20945;-69
2021/12/12 06:48:51;;;;;;;4.40;3.83;;;6.00;99.90;;;;;;4975573;28;20416;-69
2021/12/12 06:51:17;;;;;;;4.53;3.40;;;5.90;99.90;;;;;;4976594;28;20738;-69
2021/12/12 06:53:45;;;;;;;4.40;2.90;;;6.00;99.90;;;;;;4975218;28;20430;-69
2021/12/12 06:56:16;;;;;;;3.33;3.03;;;6.00;99.90;;;;;;4974326;28;20432;-69
2021/12/12 06:58:42;;;;;;;5.47;3.07;;;6.00;99.90;;;;;;4990754;28;20411;-69
2021/12/12 07:01:16;;;;;;;3.57;3.10;;;6.00;99.90;;;;;;4991023;28;20548;-69
2021/12/12 07:03:43;;;;;;;3.37;3.07;;;6.00;99.90;;;;;;4994731;28;20407;-68
2021/12/12 07:06:08;;;;;;;5.50;3.10;;;6.10;99.90;;;;;;4988920;28;20458;-69
2021/12/12 07:08:35;;;;;;;3.40;2.80;;;6.00;99.90;;;;;;4974949;28;20409;-69
2021/12/12 07:11:02;;;;;;;4.10;3.23;;;6.00;99.90;;;;;;4974813;28;20173;-69
2021/12/12 07:13:28;;;;;;;3.47;3.17;;;6.00;99.90;;;;;;4976087;28;20483;-70
2021/12/12 07:15:56;;;;;;;5.00;3.10;;;6.00;99.90;;;;;;4974558;28;20471;-69
2021/12/12 07:18:27;;;;;;;3.77;2.87;;;6.00;99.90;;;;;;4974505;28;20448;-68
2021/12/12 07:20:55;;;;;;;3.53;3.23;;;5.90;99.90;;;;;;4974288;28;20416;-69
2021/12/12 07:23:22;;;;;;;4.23;3.83;;;5.90;99.90;;;;;;4975393;28;20443;-70
2021/12/12 07:25:48;;;;;;;2.80;2.60;;;5.90;99.90;;;;;;4974084;28;20436;-70
2021/12/12 07:28:15;;;;;;;3.30;2.97;;;5.90;99.90;;;;;;4974219;28;20412;-69
2021/12/12 07:30:41;;;;;;;4.07;3.20;;;6.00;99.90;;;;;;4974184;28;20420;-69
2021/12/12 07:33:07;;;;;;;3.40;3.00;;;6.00;99.90;;;;;;4975179;28;20881;-69
2021/12/12 07:35:36;;;;;;;2.80;2.40;;;6.10;99.90;;;;;;4973759;28;20473;-70
2021/12/12 07:38:05;;;;;;;2.83;2.57;;;6.10;99.90;;;;;;4974176;28;20460;-69
2021/12/12 07:40:30;;;;;;;3.23;2.63;;;6.10;99.90;;;;;;4974084;28;20404;-69
2021/12/12 07:42:57;;;;;;;3.50;2.90;;;6.10;99.90;;;;;;4973059;28;20439;-70
2021/12/12 07:45:23;;;;;;;3.10;2.80;;;6.10;99.90;;;;;;4974731;28;20213;-69
2021/12/12 07:47:51;;;;;;;3.77;2.90;;;6.20;99.90;;;;;;4973857;28;20419;-69
2021/12/12 07:50:18;;;;;;;3.30;3.00;;;6.20;99.90;;;;;;4973875;28;20416;-70
2021/12/12 07:52:45;;;;;;;3.20;2.70;;;6.10;99.90;;;;;;4973682;28;20417;-69
2021/12/12 07:55:11;;;;;;;4.07;3.20;;;6.20;99.90;;;;;;4975066;28;20435;-70
2021/12/12 07:57:37;;;;;;;3.13;2.83;;;6.10;99.90;;;;;;4973446;28;20467;-70
2021/12/12 08:00:08;;;;;;;3.00;2.70;;;6.10;99.90;;;;;;4973755;28;20721;-69
2021/12/12 08:02:34;;;;;;;3.00;2.80;;;6.10;99.90;;;;;;4973767;28;20415;-69
2021/12/12 08:05:01;;;;;;;3.23;2.93;;;6.10;99.90;;;;;;4973240;28;20503;-69
2021/12/12 08:07:28;;;;;;;3.43;3.13;;;6.10;99.90;;;;;;4973317;28;20440;-69
2021/12/12 08:09:54;;;;;;;3.03;2.80;;;6.10;99.90;;;;;;4973692;28;20471;-69
2021/12/12 08:12:26;;;;;;;3.57;3.27;;;6.10;99.90;;;;;;4982269;28;20447;-68
2021/12/12 08:14:52;;;;;;;3.00;2.60;;;6.20;99.90;;;;;;4992988;28;20422;-69
2021/12/12 08:17:20;;;;;;;3.60;2.90;;;6.30;99.90;;;;;;4984125;28;20459;-69
2021/12/12 08:19:49;;;;;;;3.53;3.23;;;6.30;99.90;;;;;;4989139;28;20447;-71
2021/12/12 08:22:16;;;;;;;2.60;2.40;;;6.30;99.90;;;;;;4984849;28;20443;-70
2021/12/12 08:24:42;;;;;;;3.83;3.43;;;6.30;99.90;;;;;;4988632;28;20419;-71
2021/12/12 08:27:10;;;;;;;3.70;2.70;;;6.30;99.90;;;;;;4989623;28;20464;-70
2021/12/12 08:29:37;;;;;;;2.93;2.73;;;6.30;99.90;;;;;;4987394;28;20938;-71
2021/12/12 08:32:08;;;;;;;3.53;3.23;;;6.40;99.90;;;;;;4988788;28;20441;-68
2021/12/12 08:34:34;;;;;;;3.53;3.17;;;6.30;99.90;;;;;;4989643;28;20824;-70
2021/12/12 08:37:01;;;;;;;3.20;2.83;;;6.30;99.90;;;;;;4984320;28;20889;-69
2021/12/12 08:39:28;;;;;;;3.40;3.10;;;6.30;99.90;;;;;;4992095;28;20423;-67
2021/12/12 08:41:56;;;;;;;3.53;3.00;;;6.20;99.90;;;;;;4987660;28;20502;-69
2021/12/12 08:44:22;;;;;;;4.23;3.10;;;6.30;99.90;;;;;;4991378;28;20423;-70
2021/12/12 08:46:50;;;;;;;3.00;2.80;;;6.20;99.90;;;;;;4988395;28;20459;-70
2021/12/12 08:49:18;;;;;;;2.77;2.57;;;6.20;99.90;;;;;;4987100;28;20478;-70
2021/12/12 08:51:49;;;;;;;3.17;2.70;;;6.10;99.90;;;;;;4990729;28;20431;-70
2021/12/12 08:54:23;;;;;;;2.67;2.47;;;6.20;99.90;;;;;;4986930;28;20420;-69
2021/12/12 08:57:02;;;;;;;3.20;2.70;;;6.30;99.90;;;;;;4985446;28;20477;-69
2021/12/12 08:59:28;;;;;;;2.90;2.70;;;6.30;99.90;;;;;;4988740;28;21047;-69
2021/12/12 09:01:58;;;;;;;3.70;3.30;;;6.40;99.90;;;;;;4995403;28;20501;-70
2021/12/12 09:04:27;;;;;;;3.10;2.90;;;6.40;99.90;;;;;;4990346;28;21002;-68
2021/12/12 09:07:27;;;;;;;5.30;2.97;;;6.40;99.90;;;;;;5002511;28;20563;-69
2021/12/12 09:10:06;;;;;;;2.57;2.37;;;6.60;99.90;;;;;;4969238;28;20460;-69
2021/12/12 09:12:40;;;;;;;3.17;2.80;;;6.60;99.90;;;;;;4953769;28;20872;-69
2021/12/12 09:15:09;;;;;;;3.30;2.80;;;6.60;99.90;;;;;;4950515;28;20445;-69
2021/12/12 09:17:47;;;;;;;2.60;2.40;;;6.60;99.90;;;;;;4949477;28;20550;-69
2021/12/12 09:20:15;;;;;;;2.83;2.53;;;6.60;99.90;;;;;;4950441;28;20970;-68
2021/12/12 09:22:56;;;;;;;2.50;2.30;;;6.70;99.90;;;;;;4950107;28;20516;-70
2021/12/12 09:25:36;;;;;;;2.20;2.00;;;6.70;99.90;;;;;;4949637;28;20452;-68
2021/12/12 09:28:12;;;;;;;2.47;2.27;;;6.80;99.90;;;;;;4950329;28;20494;-70
2021/12/12 09:30:39;;;;;;;2.30;2.10;;;6.80;99.90;;;;;;4949823;28;20874;-69
2021/12/12 09:33:29;;;;;;;3.70;2.50;;;6.80;99.90;;;;;;4950140;28;20480;-70
2021/12/12 09:36:13;;;;;;;2.73;2.53;;;6.80;99.90;;;;;;4949951;28;20490;-70
2021/12/12 09:38:47;;;;;;;3.30;3.00;;;6.70;99.90;;;;;;4949360;28;20528;-70
2021/12/12 09:41:26;;;;;;;2.77;2.47;;;6.70;99.90;;;;;;4949279;28;21268;-68
2021/12/12 09:44:19;;;;;;;2.70;2.50;;;6.70;99.90;;;;;;4950315;28;20985;-70
2021/12/12 09:47:10;;;;;;;2.73;2.53;;;6.80;99.90;;;;;;4964843;28;20816;-68
2021/12/12 09:53:19;;;;;;;3.30;2.97;;;6.70;99.90;;;;;;4972162;28;20450;-71
2021/12/12 09:56:11;;;;;;;3.33;2.70;;;6.80;99.90;;;;;;4975787;28;20471;-72
2021/12/12 09:58:40;;;;;;;3.53;3.30;;;6.80;99.90;;;;;;4991532;28;20467;-70
2021/12/12 10:01:17;;;;;;;3.47;3.20;;;6.80;99.90;;;;;;4990276;28;20942;-70
2021/12/12 10:03:49;;;;;;;3.70;3.40;;;6.70;99.90;;;;;;4989795;28;20466;-70
2021/12/12 10:06:34;;;;;;;3.40;3.10;;;6.70;99.90;;;;;;4991488;28;20438;-71
2021/12/12 10:09:10;;;;;;;3.80;3.30;;;6.80;99.90;;;;;;4994321;28;20423;-71
2021/12/12 10:11:48;;;;;;;3.70;3.40;;;6.70;99.90;;;;;;4999914;28;20943;-70
2021/12/12 10:14:28;;;;;;;3.73;3.43;;;6.80;99.90;;;;;;5011477;28;20932;-70
2021/12/12 10:17:05;;;;;;;3.50;3.20;;;6.80;99.90;;;;;;5009833;28;20506;-70
2021/12/12 10:19:37;;;;;;;4.37;3.67;;;7.00;99.90;;;;;;4994030;28;20415;-70
2021/12/12 10:22:02;;;;;;;3.77;3.30;;;6.90;99.90;;;;;;5006018;28;20495;-70
2021/12/12 10:24:37;;;;;;;3.73;3.43;;;6.90;99.90;;;;;;5001386;28;20550;-70
2021/12/12 10:27:32;;;;;;;3.70;3.03;;;7.00;99.90;;;;;;5014349;28;20226;-70
2021/12/12 10:30:10;;;;;;;3.90;3.60;;;7.10;99.90;;;;;;4998164;28;20413;-70
2021/12/12 10:32:53;;;;;;;4.00;3.70;;;7.10;99.90;;;;;;4987843;28;20412;-70
2021/12/12 10:35:32;;;;;;;3.73;3.33;;;7.10;99.90;;;;;;4975413;28;20391;-70
2021/12/12 10:38:10;;;;;;;3.50;3.30;;;7.20;99.90;;;;;;5016417;23;20485;-68
2021/12/12 10:40:45;;;;;;;4.13;3.40;;;7.20;99.90;;;;;;5016757;28;20426;-68
2021/12/12 10:43:13;;;;;;;4.60;3.93;;;7.20;99.90;;;;;;5022646;28;20402;-68
2021/12/12 10:45:49;;;;;;;4.87;3.30;;;7.30;99.90;;;;;;5022969;28;20495;-68
2021/12/12 10:48:18;;;;;;;3.43;3.07;;;7.20;99.90;;;;;;5018399;28;20424;-68
2021/12/12 10:51:00;;;;;;;3.67;3.37;;;7.30;99.90;;;;;;5015676;28;20410;-67
2021/12/12 10:53:48;;;;;;;3.80;3.50;;;7.30;99.90;;;;;;5015463;28;20772;-68
2021/12/12 10:56:33;;;;;;;3.97;3.67;;;7.20;99.90;;;;;;4994726;28;20422;-67
2021/12/12 10:59:03;;;;;;;3.40;3.10;;;7.20;99.90;;;;;;4995681;28;20407;-67
2021/12/12 11:01:36;;;;;;;3.23;3.03;;;7.20;99.90;;;;;;4995513;28;20420;-67
2021/12/12 11:04:08;;;;;;;3.33;3.03;;;7.30;99.90;;;;;;4995675;28;20497;-68
2021/12/12 11:06:41;;;;;;;3.50;3.20;;;7.30;99.90;;;;;;4995357;28;20801;-66
2021/12/12 11:09:21;;;;;;;3.50;3.20;;;7.30;99.90;;;;;;4995445;28;20560;-67
2021/12/12 11:11:58;;;;;;;3.43;3.23;;;7.30;99.90;;;;;;4995363;28;20420;-68
2021/12/12 11:14:28;;;;;;;3.27;2.97;;;7.40;99.90;;;;;;4995264;28;20897;-66
2021/12/12 11:16:55;;;;;;;3.00;2.70;;;7.40;99.90;;;;;;4995138;28;20471;-66
2021/12/12 11:19:43;;;;;;;3.70;3.40;;;7.40;99.90;;;;;;4995569;28;20422;-67
2021/12/12 11:22:43;;;;;;;3.83;3.47;;;7.40;99.90;;;;;;4995537;28;20407;-67
2021/12/12 11:25:18;;;;;;;5.70;4.33;;;7.40;99.90;;;;;;5004899;28;20497;-67
2021/12/12 11:27:54;;;;;;;3.87;3.57;;;7.50;99.90;;;;;;5016425;28;20487;-68
2021/12/12 11:30:40;;;;;;;3.40;3.10;;;7.50;99.90;;;;;;5018950;28;20433;-67
2021/12/12 11:33:09;;;;;;;3.27;2.90;;;7.40;99.90;;;;;;5012959;28;20426;-67
2021/12/12 11:35:39;;;;;;;3.17;2.97;;;7.50;99.90;;;;;;5011048;28;20658;-67
2021/12/12 11:38:11;;;;;;;5.20;3.80;;;7.40;99.90;;;;;;5013494;28;20470;-69
2021/12/12 11:40:47;;;;;;;4.00;3.60;;;7.40;99.90;;;;;;5013925;28;20423;-67
2021/12/12 11:43:48;;;;;;;3.17;2.80;;;7.40;99.90;;;;;;5014281;28;20948;-68
2021/12/12 11:46:24;;;;;;;2.90;2.70;;;7.40;99.90;;;;;;4986955;28;20464;-68
2021/12/12 11:49:11;;;;;;;3.07;2.87;;;7.40;99.90;;;;;;4991653;28;20522;-67
2021/12/12 11:52:00;;;;;;;3.33;3.13;;;7.40;99.90;;;;;;4991621;28;20519;-68
2021/12/12 11:54:54;;;;;;;3.00;2.80;;;7.40;99.90;;;;;;4992058;28;20427;-66
2021/12/12 11:57:26;;;;;;;3.03;2.83;;;7.50;99.90;;;;;;4977857;28;20482;-67
2021/12/12 12:00:11;;;;;;;2.93;2.73;;;7.50;99.90;;;;;;4991840;28;20427;-68
2021/12/12 12:02:56;;;;;;;2.77;2.53;;;7.50;99.90;;;;;;4991982;28;20447;-68
2021/12/12 12:05:35;;;;;;;2.80;2.60;;;7.60;99.90;;;;;;4991136;28;20829;-69
2021/12/12 12:08:24;;;;;;;3.03;2.73;;;7.50;99.90;;;;;;4983740;28;20511;-67
2021/12/12 12:11:08;;;;;;;2.97;2.77;;;7.50;99.90;;;;;;4991857;28;20417;-66
2021/12/12 12:14:11;;;;;;;3.03;2.73;;;7.60;99.90;;;;;;4992660;28;20423;-68
2021/12/12 12:17:05;;;;;;;3.07;2.87;;;7.50;99.90;;;;;;4987489;28;20494;-68
2021/12/12 12:19:48;;;;;;;3.90;3.20;;;7.50;99.90;;;;;;4995936;28;20422;-68
2021/12/12 12:22:31;;;;;;;2.50;2.40;;;7.50;99.90;;;;;;5013554;28;20418;-68
2021/12/12 12:25:15;;;;;;;3.40;3.13;;;7.60;99.90;;;;;;5012922;28;20414;-68
2021/12/12 12:27:47;;;;;;;3.37;3.10;;;7.60;99.90;;;;;;5012616;28;20450;-69
2021/12/12 12:30:51;;;;;;;2.67;2.47;;;7.70;99.90;;;;;;5019163;28;20442;-70
2021/12/12 12:33:45;;;;;;;2.80;2.60;;;7.70;99.90;;;;;;5002016;28;20431;-67
2021/12/12 12:36:23;;;;;;;2.40;2.30;;;7.70;99.90;;;;;;5016788;28;20422;-67
2021/12/12 12:39:29;;;;;;;2.33;2.23;;;7.70;99.90;;;;;;5003224;28;20471;-68
2021/12/12 12:42:16;;;;;;;3.10;2.87;;;7.80;99.90;;;;;;5004853;28;20768;-67
2021/12/12 12:45:18;;;;;;;2.87;2.67;;;7.70;99.90;;;;;;5013463;28;20449;-66
2021/12/12 12:48:12;;;;;;;3.80;2.50;;;7.80;99.90;;;;;;5012389;28;20495;-67
2021/12/12 12:50:44;;;;;;;3.10;2.90;;;7.80;99.90;;;;;;5012179;28;20426;-67
2021/12/12 12:53:31;;;;;;;3.57;3.27;;;7.80;99.90;;;;;;5011555;28;20492;-67
2021/12/12 12:56:44;;;;;;;2.97;2.73;;;7.70;99.90;;;;;;5007532;28;20471;-67
2021/12/12 12:59:29;;;;;;;3.97;3.20;;;7.80;99.90;;;;;;5009102;28;20793;-68
2021/12/12 13:02:18;;;;;;;2.90;2.70;;;7.80;99.90;;;;;;5011560;28;20418;-68
2021/12/12 13:05:05;;;;;;;3.00;2.80;;;7.80;99.90;;;;;;5017358;28;20405;-68
2021/12/12 13:08:08;;;;;;;2.80;2.60;;;7.70;99.90;;;;;;5009711;28;20438;-67
2021/12/12 13:10:35;;;;;;;2.70;2.50;;;7.80;99.90;;;;;;5009321;28;20449;-67
2021/12/12 13:13:07;;;;;;;3.10;2.70;;;7.80;99.90;;;;;;5005870;28;20423;-67
2021/12/12 13:15:45;;;;;;;3.10;2.90;;;7.70;99.90;;;;;;4990629;28;20442;-67
2021/12/12 13:18:33;;;;;;;3.90;3.60;;;7.80;99.90;;;;;;4996843;28;20469;-68
2021/12/12 13:21:01;;;;;;;3.97;3.43;;;7.80;99.90;;;;;;5006673;28;21257;-67
2021/12/12 13:24:02;;;;;;;3.90;3.43;;;7.70;99.90;;;;;;5005067;28;20514;-67
2021/12/12 13:26:52;;;;;;;3.50;3.27;;;7.80;99.90;;;;;;5007241;28;20787;-67
2021/12/12 13:29:36;;;;;;;4.10;3.17;;;7.80;99.90;;;;;;5014306;28;20456;-67
2021/12/12 13:32:27;;;;;;;4.80;4.40;;;7.90;99.90;;;;;;4994904;28;20521;-68
2021/12/12 13:35:11;;;;;;;3.40;3.10;;;7.80;99.90;;;;;;5010502;28;20479;-68
2021/12/12 13:37:51;;;;;;;3.50;3.20;;;7.90;99.90;;;;;;4996869;28;20493;-67
2021/12/12 13:40:30;;;;;;;4.67;4.07;;;8.00;99.90;;;;;;5014276;28;20465;-68
2021/12/12 13:43:21;;;;;;;4.40;4.03;;;8.00;99.90;;;;;;5022065;28;20504;-67
2021/12/12 13:45:49;;;;;;;4.30;3.97;;;7.90;99.90;;;;;;5003843;28;20586;-66
2021/12/12 13:48:42;;;;;;;4.60;4.20;;;7.90;99.90;;;;;;5012103;28;20455;-67
2021/12/12 13:51:33;;;;;;;6.23;5.63;;;8.00;99.90;;;;;;5010869;28;20824;-67